X  Close Metar Aviation Weather Data     KDNN Dalton Municipal Airport
Temperature
12°C Temperature
-4°C Dewpoint
33% Humidity



Wind
11 KM/H
7 MPH
3 M/S
6 KTS



200°
SSW
Current Conditions

Partly Cloudy Partly Cloudy
Pressure 1027.42 (hPa) - 30.34 (inHg)
Visibility 10 (mile) - 16.1 (km)
Airport
Airport-code KDNN

Location: Dalton Municipal Airport
Distance: 34 (km)

Metar:
KDNN 281855Z AUTO 20006KT 10SM FEW230 SCT280 SCT340 12/M04 A3034 RMK AO2 T01221041

Time: 01-28-2023 13:55 EST